createdAt,value
2023-01-17T00:16:46.591Z,8.90
2023-01-17T00:19:48.869Z,7.80
2023-01-17T00:22:43.539Z,7.60
2023-01-17T00:25:43.153Z,7.70
2023-01-17T00:28:10.047Z,6.90
2023-01-17T00:30:36.937Z,7.10
2023-01-17T00:33:04.990Z,8.10
2023-01-17T00:35:32.125Z,7.00
2023-01-17T00:38:03.392Z,6.80
2023-01-17T00:40:31.447Z,7.00
2023-01-17T00:43:17.183Z,7.20
2023-01-17T00:46:03.593Z,7.50
2023-01-17T00:48:49.626Z,7.70
2023-01-17T00:51:35.338Z,6.60
2023-01-17T00:54:20.991Z,6.90
2023-01-17T00:57:07.228Z,6.90
2023-01-17T00:59:53.067Z,6.80
2023-01-17T01:02:39.317Z,7.00
2023-01-17T01:05:25.950Z,7.60
2023-01-17T01:08:11.511Z,7.10
2023-01-17T01:10:57.871Z,7.70
2023-01-17T01:13:44.367Z,7.60
2023-01-17T01:16:30.770Z,7.50
2023-01-17T01:19:17.559Z,8.20
2023-01-17T01:22:03.092Z,8.80
2023-01-17T01:24:48.736Z,8.90
2023-01-17T01:27:34.236Z,8.60
2023-01-17T01:30:19.871Z,7.70
2023-01-17T01:33:05.817Z,6.60
2023-01-17T01:35:36.526Z,7.50
2023-01-17T01:38:03.573Z,7.00
2023-01-17T01:40:31.115Z,7.20
2023-01-17T01:42:59.314Z,7.70
2023-01-17T01:45:28.698Z,7.80
2023-01-17T01:48:17.173Z,7.80
2023-01-17T01:50:43.999Z,7.90
2023-01-17T01:53:10.963Z,8.40
2023-01-17T01:55:39.910Z,8.30
2023-01-17T01:58:15.227Z,7.80
2023-01-17T02:00:42.146Z,7.00
2023-01-17T02:03:24.224Z,7.40
2023-01-17T02:05:51.377Z,7.40
2023-01-17T06:44:47.368Z,17.60
2023-01-17T06:47:14.243Z,19.10
2023-01-17T06:49:41.790Z,16.70
2023-01-17T06:52:10.061Z,15.70
2023-01-17T06:54:37.048Z,14.90
2023-01-17T06:57:04.844Z,14.30
2023-01-17T06:59:32.187Z,14.30
2023-01-17T07:02:00.268Z,14.50
2023-01-17T07:04:27.601Z,13.20
2023-01-17T07:06:55.061Z,14.50
2023-01-17T07:09:22.755Z,14.10
2023-01-17T07:11:51.694Z,13.50
2023-01-17T07:14:19.332Z,13.00
2023-01-17T07:19:17.613Z,13.00
2023-01-17T07:21:44.961Z,12.80
2023-01-17T07:24:12.038Z,14.00
2023-01-17T07:26:40.446Z,14.00
2023-01-17T07:29:08.084Z,13.40
2023-01-17T07:31:37.639Z,14.20
2023-01-17T07:34:05.348Z,15.10
2023-01-17T07:36:34.252Z,13.70
2023-01-17T07:39:02.038Z,14.90
2023-01-17T07:41:41.144Z,14.60
2023-01-17T07:44:12.041Z,12.70
2023-01-17T07:46:40.527Z,13.50
2023-01-17T07:49:08.042Z,13.10
2023-01-17T07:51:36.479Z,13.20
2023-01-17T07:54:07.345Z,12.40
2023-01-17T07:56:37.797Z,12.90
2023-01-17T08:01:32.635Z,12.80
2023-01-17T08:04:09.701Z,12.10
2023-01-17T08:06:37.634Z,11.50
2023-01-17T08:09:06.616Z,11.80
2023-01-17T08:11:34.762Z,12.00
2023-01-17T10:00:02.884Z,16.90
2023-01-17T10:02:52.600Z,20.10
2023-01-17T10:05:26.824Z,18.60
2023-01-17T10:07:58.115Z,17.90
2023-01-17T10:10:31.695Z,17.80
2023-01-17T10:13:04.451Z,16.00
2023-01-17T10:15:48.179Z,15.90
2023-01-17T10:18:29.568Z,16.90
2023-01-17T10:21:04.727Z,16.10
2023-01-17T10:23:45.719Z,15.40
2023-01-17T10:26:17.325Z,16.40
2023-01-17T10:28:48.165Z,17.60
2023-01-17T10:31:20.445Z,16.40
2023-01-17T10:33:55.587Z,16.30
2023-01-17T10:36:38.832Z,15.10
2023-01-17T10:39:20.783Z,16.30
2023-01-17T10:41:54.817Z,15.70
2023-01-17T10:44:44.269Z,15.70
2023-01-17T10:47:11.032Z,15.10
2023-01-17T10:49:39.699Z,15.80
2023-01-17T10:52:16.172Z,15.10
2023-01-17T10:55:04.550Z,15.60
2023-01-17T10:57:42.156Z,15.40
2023-01-17T11:00:39.443Z,17.10
2023-01-17T11:03:07.092Z,15.60
2023-01-17T11:05:34.347Z,15.70
2023-01-17T11:08:01.936Z,15.50
2023-01-17T11:10:42.832Z,15.40
2023-01-17T11:13:21.982Z,16.50
2023-01-17T11:15:50.717Z,15.20
2023-01-17T11:18:18.883Z,15.00
2023-01-17T11:20:46.087Z,16.50
2023-01-17T11:23:18.011Z,14.90
2023-01-17T11:25:49.599Z,15.70
2023-01-17T11:28:20.993Z,15.60
2023-01-17T11:30:52.280Z,15.10
2023-01-17T11:33:35.537Z,14.50
2023-01-17T11:36:02.570Z,15.00
2023-01-17T11:38:29.740Z,16.80
2023-01-17T11:41:17.167Z,15.10
2023-01-17T11:43:52.796Z,15.40
2023-01-17T11:46:20.139Z,16.80
2023-01-17T11:48:56.304Z,15.90
2023-01-17T11:51:34.806Z,14.70
2023-01-17T11:54:38.983Z,14.90
2023-01-17T11:57:08.124Z,14.70
2023-01-17T11:59:38.181Z,14.90
2023-01-17T12:02:31.258Z,16.10
2023-01-17T12:05:27.796Z,15.10
2023-01-17T12:08:01.479Z,15.60
2023-01-17T12:10:46.762Z,15.40
2023-01-17T12:13:45.862Z,15.20
2023-01-17T12:16:31.282Z,15.90
2023-01-17T17:49:33.878Z,13.20
2023-01-17T17:52:07.501Z,17.60
2023-01-17T17:54:34.895Z,16.80
2023-01-17T17:57:02.057Z,17.00
2023-01-17T17:59:30.047Z,16.50
2023-01-17T18:01:58.944Z,17.00
2023-01-17T18:04:26.288Z,18.30
2023-01-17T18:06:56.865Z,17.90
2023-01-17T18:09:24.530Z,18.20
2023-01-17T18:11:51.899Z,16.80
2023-01-17T18:14:21.583Z,18.30
2023-01-17T18:16:48.837Z,18.10
2023-01-17T18:19:17.669Z,17.60
2023-01-17T18:21:44.901Z,17.00
2023-01-17T18:24:16.607Z,15.20
2023-01-17T18:26:46.073Z,15.20
2023-01-17T18:29:18.006Z,15.40
2023-01-17T18:31:45.498Z,15.40
2023-01-17T18:34:21.545Z,15.50
2023-01-17T18:36:48.845Z,14.80
2023-01-17T18:39:21.509Z,14.50
2023-01-17T18:41:49.466Z,14.60
2023-01-17T18:46:43.692Z,14.20
2023-01-17T18:49:11.657Z,14.40
2023-01-17T18:51:39.094Z,14.60
2023-01-17T18:54:07.385Z,15.30
2023-01-17T18:56:35.414Z,14.90
2023-01-17T19:01:32.553Z,15.50
2023-01-17T19:04:02.520Z,14.60
2023-01-17T19:06:32.423Z,14.40
2023-01-17T19:08:59.754Z,14.40
2023-01-17T19:11:27.216Z,14.30
2023-01-17T19:13:54.911Z,14.20
2023-01-17T19:16:24.708Z,14.10
2023-01-17T19:18:52.464Z,12.70
2023-01-17T19:21:24.173Z,13.50
2023-01-17T19:23:51.408Z,13.70
2023-01-17T19:26:20.573Z,17.60
2023-01-17T19:28:48.313Z,20.50
2023-01-17T19:31:17.535Z,17.90
2023-01-17T19:33:45.412Z,17.10
2023-01-17T19:38:55.183Z,16.00
2023-01-17T19:41:30.898Z,14.30
2023-01-17T19:43:59.493Z,14.30
2023-01-17T19:46:27.635Z,13.70
2023-01-17T19:48:55.663Z,14.00
2023-01-17T19:51:23.080Z,13.80
2023-01-17T19:53:50.339Z,12.50
2023-01-17T19:56:19.422Z,13.10
2023-01-17T19:58:47.629Z,12.70
2023-01-17T20:01:16.764Z,13.00
